createdAt,value
2018-01-14T00:02:12.263Z,26.43
2018-01-14T00:04:39.783Z,24.93
2018-01-14T00:07:07.252Z,26.00
2018-01-14T00:09:35.489Z,23.20
2018-01-14T00:12:02.959Z,26.83
2018-01-14T00:14:30.423Z,19.87
2018-01-14T00:16:57.901Z,22.50
2018-01-14T00:19:26.141Z,19.20
2018-01-14T00:21:53.616Z,26.00
2018-01-14T00:24:21.084Z,19.17
2018-01-14T00:26:48.565Z,20.03
2018-01-14T00:29:16.801Z,20.27
2018-01-14T00:31:44.277Z,22.23
2018-01-14T00:34:11.752Z,23.97
2018-01-14T00:36:39.992Z,23.60
2018-01-14T00:39:07.457Z,21.63
2018-01-14T00:41:34.928Z,26.07
2018-01-14T00:44:02.464Z,26.83
2018-01-14T00:46:29.883Z,21.83
2018-01-14T00:48:57.368Z,23.47
2018-01-14T00:51:24.836Z,20.30
2018-01-14T00:53:53.075Z,21.97
2018-01-14T00:56:20.556Z,22.57
2018-01-14T00:58:48.027Z,25.47
2018-01-14T01:01:15.502Z,21.77
2018-01-14T01:03:42.980Z,21.93
2018-01-14T01:06:11.215Z,22.97
2018-01-14T01:08:39.473Z,20.73
2018-01-14T01:11:06.941Z,19.70
2018-01-14T01:13:34.404Z,23.07
2018-01-14T01:16:01.884Z,22.07
2018-01-14T01:18:29.352Z,21.57
2018-01-14T01:20:56.824Z,19.67
2018-01-14T01:23:25.062Z,21.90
2018-01-14T01:25:52.540Z,23.67
2018-01-14T01:28:20.012Z,20.37
2018-01-14T01:30:47.488Z,20.07
2018-01-14T01:33:15.729Z,24.17
2018-01-14T01:35:43.213Z,20.63
2018-01-14T01:38:11.448Z,21.60
2018-01-14T01:40:38.916Z,19.57
2018-01-14T01:43:06.394Z,18.73
2018-01-14T01:45:33.861Z,22.00
2018-01-14T01:48:01.336Z,24.37
2018-01-14T01:50:29.566Z,22.70
2018-01-14T01:52:57.039Z,21.67
2018-01-14T01:55:24.511Z,22.57
2018-01-14T01:57:51.984Z,17.90
2018-01-14T02:00:20.221Z,22.43
2018-01-14T02:02:47.701Z,20.20
2018-01-14T02:05:15.173Z,21.03
2018-01-14T02:07:44.208Z,20.57
2018-01-14T02:10:11.689Z,21.50
2018-01-14T02:12:39.160Z,20.43
2018-01-14T02:15:06.632Z,21.10
2018-01-14T02:17:34.868Z,23.77
2018-01-14T02:20:02.344Z,16.13
2018-01-14T02:22:29.892Z,19.27
2018-01-14T02:24:57.384Z,20.37
2018-01-14T02:27:24.861Z,17.23
2018-01-14T02:29:53.089Z,20.43
2018-01-14T02:32:20.577Z,19.07
2018-01-14T02:34:48.812Z,22.97
2018-01-14T02:37:17.077Z,15.73
2018-01-14T02:39:44.549Z,19.47
2018-01-14T02:42:12.032Z,20.77
2018-01-14T02:44:39.501Z,19.23
2018-01-14T02:47:06.976Z,19.90
2018-01-14T02:49:35.218Z,18.07
2018-01-14T02:52:02.696Z,20.37
2018-01-14T02:54:30.156Z,20.83
2018-01-14T02:56:58.400Z,19.40
2018-01-14T02:59:25.863Z,17.27
2018-01-14T03:01:53.332Z,16.63
2018-01-14T03:04:20.800Z,17.70
2018-01-14T03:06:48.516Z,17.27
2018-01-14T03:09:15.992Z,18.90
2018-01-14T03:11:43.736Z,19.37
2018-01-14T03:14:11.217Z,20.63
2018-01-14T03:16:38.684Z,16.97
2018-01-14T03:19:06.160Z,18.00
2018-01-14T03:21:33.625Z,17.40
2018-01-14T03:24:01.105Z,19.73
2018-01-14T03:26:28.577Z,17.97
2018-01-14T03:28:56.065Z,17.03
2018-01-14T03:31:23.530Z,16.77
2018-01-14T03:33:51.012Z,17.40
2018-01-14T03:36:18.480Z,20.43
2018-01-14T03:38:46.729Z,19.50
2018-01-14T03:41:14.200Z,22.00
2018-01-14T03:43:41.671Z,21.67
2018-01-14T03:46:09.140Z,19.43
2018-01-14T03:48:37.376Z,22.70
2018-01-14T03:51:04.852Z,18.73
2018-01-14T03:53:32.316Z,22.90
2018-01-14T03:55:59.802Z,18.57
2018-01-14T03:58:27.594Z,22.10
2018-01-14T04:00:55.069Z,22.33
2018-01-14T04:03:22.557Z,19.00
2018-01-14T04:05:50.024Z,20.10
2018-01-14T04:08:18.268Z,20.90
2018-01-14T04:10:45.741Z,21.50
2018-01-14T04:13:13.221Z,22.33
2018-01-14T04:15:41.457Z,22.73
2018-01-14T04:18:08.944Z,20.17
2018-01-14T04:20:36.409Z,19.83
2018-01-14T04:23:04.642Z,23.80
2018-01-14T04:25:32.124Z,21.83
2018-01-14T04:27:59.593Z,22.67
2018-01-14T04:30:27.306Z,19.60
2018-01-14T04:32:54.776Z,20.53
2018-01-14T04:35:22.528Z,20.27
2018-01-14T04:37:50.001Z,18.57
2018-01-14T04:40:17.474Z,19.03
2018-01-14T04:42:44.945Z,20.13
2018-01-14T04:45:12.420Z,21.03
2018-01-14T04:47:39.896Z,22.97
2018-01-14T04:50:07.369Z,23.27
2018-01-14T04:52:34.845Z,23.67
2018-01-14T04:55:02.321Z,22.73
2018-01-14T04:57:29.793Z,22.37
2018-01-14T04:59:57.264Z,21.20
2018-01-14T05:02:24.745Z,23.10
2018-01-14T05:04:52.216Z,25.80
2018-01-14T05:07:19.697Z,22.27
2018-01-14T05:09:47.164Z,22.77
2018-01-14T05:12:14.645Z,19.23
2018-01-14T05:14:42.108Z,24.97
2018-01-14T05:17:09.585Z,25.17
2018-01-14T05:19:37.827Z,24.33
2018-01-14T05:22:05.315Z,24.73
2018-01-14T05:24:33.556Z,29.37
2018-01-14T05:27:01.025Z,26.20
2018-01-14T05:29:28.520Z,25.07
2018-01-14T05:31:56.757Z,26.30
2018-01-14T05:34:24.232Z,25.90
2018-01-14T05:36:51.705Z,25.57
2018-01-14T05:39:19.952Z,23.00
2018-01-14T05:41:47.420Z,24.07
2018-01-14T05:44:14.900Z,26.97
2018-01-14T05:46:43.186Z,24.73
2018-01-14T05:49:10.621Z,25.17
2018-01-14T05:51:38.100Z,21.90
2018-01-14T05:54:06.360Z,20.57
2018-01-14T05:56:34.588Z,22.23
2018-01-14T05:59:02.057Z,25.33
2018-01-14T06:01:29.539Z,25.97
2018-01-14T06:03:56.995Z,24.97
2018-01-14T06:06:24.480Z,22.03
2018-01-14T06:08:52.717Z,21.83
2018-01-14T06:11:20.208Z,20.57
2018-01-14T06:13:48.451Z,21.37
2018-01-14T06:16:15.924Z,21.53
2018-01-14T06:18:43.396Z,20.93
2018-01-14T06:21:11.645Z,20.50
2018-01-14T06:23:39.114Z,19.90
2018-01-14T06:26:06.845Z,21.63
2018-01-14T06:28:34.320Z,23.80
2018-01-14T06:31:01.787Z,19.63
2018-01-14T06:33:29.268Z,21.47
2018-01-14T06:35:57.511Z,18.80
2018-01-14T06:38:24.989Z,20.03
2018-01-14T06:40:52.713Z,21.43
2018-01-14T06:43:20.205Z,20.83
2018-01-14T06:45:47.680Z,18.83
2018-01-14T06:48:15.164Z,19.70
2018-01-14T06:50:42.633Z,19.73
2018-01-14T06:53:10.414Z,21.17
2018-01-14T06:55:37.897Z,16.97
2018-01-14T06:58:05.360Z,21.37
2018-01-14T07:00:32.844Z,17.43
2018-01-14T07:03:01.080Z,19.47
2018-01-14T07:05:28.557Z,25.37
2018-01-14T07:07:56.028Z,20.73
2018-01-14T07:10:23.501Z,19.33
2018-01-14T07:12:51.748Z,21.30
2018-01-14T07:15:19.224Z,20.27
2018-01-14T07:17:46.705Z,18.27
2018-01-14T07:20:14.176Z,17.80
2018-01-14T07:22:41.656Z,20.60
2018-01-14T07:25:09.116Z,19.00
2018-01-14T07:27:36.593Z,20.90
2018-01-14T07:30:04.061Z,19.40
2018-01-14T07:32:31.545Z,18.50
2018-01-14T07:34:59.772Z,17.13
2018-01-14T07:37:28.005Z,15.63
2018-01-14T07:39:55.519Z,18.45
2018-01-14T07:42:22.995Z,17.60
2018-01-14T07:44:50.475Z,20.00
2018-01-14T07:47:18.712Z,22.30
2018-01-14T07:49:46.189Z,17.37
2018-01-14T07:52:13.653Z,19.03
2018-01-14T07:54:41.129Z,21.17
2018-01-14T07:57:09.360Z,45.13
2018-01-14T07:59:36.841Z,21.47
2018-01-14T08:02:04.309Z,17.33
2018-01-14T08:04:32.550Z,20.73
2018-01-14T08:07:00.026Z,17.37
2018-01-14T08:09:27.497Z,18.60
2018-01-14T08:11:54.972Z,21.37
2018-01-14T08:14:23.209Z,16.73
2018-01-14T08:16:51.453Z,21.70
2018-01-14T08:19:18.920Z,18.37
2018-01-14T08:21:46.398Z,18.13
2018-01-14T08:24:13.873Z,18.50
2018-01-14T08:26:41.396Z,21.53
2018-01-14T08:29:08.872Z,21.53
2018-01-14T08:31:36.358Z,24.47
2018-01-14T08:34:03.829Z,26.77
2018-01-14T08:36:32.061Z,22.37
2018-01-14T08:38:59.541Z,22.30
2018-01-14T08:41:27.260Z,20.70
2018-01-14T08:43:54.744Z,21.37
2018-01-14T08:46:22.209Z,19.63
2018-01-14T08:48:49.696Z,21.30
2018-01-14T08:51:17.162Z,21.48
2018-01-14T08:53:45.409Z,19.73
2018-01-14T08:56:12.884Z,21.93
2018-01-14T08:58:40.395Z,17.83
2018-01-14T09:01:07.860Z,18.77
2018-01-14T09:03:35.329Z,19.17
2018-01-14T09:06:02.806Z,21.77
2018-01-14T09:08:30.279Z,17.37
2018-01-14T09:10:57.748Z,20.77
2018-01-14T09:13:25.989Z,17.03
2018-01-14T09:15:53.468Z,21.60
2018-01-14T09:18:21.709Z,20.17
2018-01-14T09:20:49.189Z,19.37
2018-01-14T09:23:16.658Z,21.67
2018-01-14T09:25:44.128Z,21.20
2018-01-14T09:28:12.373Z,21.90
2018-01-14T09:30:51.685Z,20.67
2018-01-14T09:33:19.176Z,19.23
2018-01-14T09:35:46.642Z,18.70
2018-01-14T09:38:14.125Z,18.63
2018-01-14T09:40:42.361Z,18.77
2018-01-14T09:43:09.841Z,18.00
2018-01-14T09:45:37.353Z,15.03
2018-01-14T09:48:05.552Z,14.67
2018-01-14T09:50:33.029Z,19.00
2018-01-14T09:53:00.508Z,16.90
2018-01-14T09:55:28.744Z,18.80
2018-01-14T09:57:56.218Z,20.43
2018-01-14T10:00:23.680Z,15.90
2018-01-14T10:02:51.156Z,19.00
2018-01-14T10:05:19.402Z,21.40
2018-01-14T10:07:46.872Z,19.73
2018-01-14T10:10:14.341Z,19.50
2018-01-14T10:12:42.577Z,14.30
2018-01-14T10:15:10.820Z,18.87
2018-01-14T10:17:38.285Z,17.23
2018-01-14T10:20:05.765Z,17.23
2018-01-14T10:22:33.233Z,19.53
2018-01-14T10:25:00.712Z,20.13
2018-01-14T10:27:28.185Z,20.33
2018-01-14T10:29:56.425Z,19.00
2018-01-14T10:32:23.903Z,18.37
2018-01-14T10:34:51.364Z,19.47
2018-01-14T10:37:18.837Z,19.17
2018-01-14T10:39:47.072Z,19.53
2018-01-14T10:42:14.549Z,19.13
2018-01-14T10:44:42.013Z,19.90
2018-01-14T10:47:09.492Z,18.83
2018-01-14T10:49:37.728Z,21.20
2018-01-14T10:52:05.192Z,19.37
2018-01-14T10:54:32.664Z,16.33
2018-01-14T10:57:00.385Z,20.40
2018-01-14T10:59:27.864Z,19.60
2018-01-14T11:01:55.333Z,19.43
2018-01-14T11:04:23.620Z,20.00
2018-01-14T11:06:51.089Z,15.07
2018-01-14T11:09:18.568Z,19.10
2018-01-14T11:11:46.804Z,16.77
2018-01-14T11:14:14.285Z,14.20
2018-01-14T11:16:41.760Z,18.50
2018-01-14T11:19:10.001Z,18.73
2018-01-14T11:21:37.464Z,18.43
2018-01-14T11:24:04.938Z,17.63
2018-01-14T11:26:32.404Z,20.87
2018-01-14T11:29:00.645Z,17.37
2018-01-14T11:31:28.116Z,15.77
2018-01-14T11:33:55.584Z,19.53
2018-01-14T11:36:23.820Z,18.33
2018-01-14T11:38:51.292Z,18.60
2018-01-14T11:41:18.775Z,19.97
2018-01-14T11:43:46.245Z,12.70
2018-01-14T11:46:14.489Z,16.63
2018-01-14T11:51:49.165Z,21.87
2018-01-14T11:54:17.396Z,21.33
2018-01-14T11:56:44.882Z,18.90
2018-01-14T11:59:12.349Z,20.60
2018-01-14T12:01:39.812Z,18.40
2018-01-14T12:04:08.057Z,19.93
2018-01-14T12:06:35.520Z,18.20
2018-01-14T12:09:03.009Z,21.43
2018-01-14T12:11:31.242Z,16.40
2018-01-14T12:13:58.722Z,17.23
2018-01-14T12:16:26.186Z,22.07
2018-01-14T12:18:53.668Z,18.47
2018-01-14T12:21:21.905Z,18.70
2018-01-14T12:23:49.396Z,17.70
2018-01-14T12:26:17.630Z,16.37
2018-01-14T12:28:45.094Z,14.17
2018-01-14T12:31:12.573Z,18.20
2018-01-14T12:33:50.633Z,17.10
2018-01-14T12:36:18.104Z,15.50
2018-01-14T12:38:45.579Z,15.07
2018-01-14T12:41:13.069Z,16.70
2018-01-14T12:43:41.296Z,14.47
2018-01-14T12:46:08.772Z,16.43
2018-01-14T12:48:36.237Z,16.87
2018-01-14T12:51:03.724Z,16.97
2018-01-14T12:53:31.961Z,12.57
2018-01-14T12:55:59.429Z,15.83
2018-01-14T12:58:26.897Z,15.93
2018-01-14T13:00:54.368Z,14.83
2018-01-14T13:03:22.609Z,14.50
2018-01-14T13:05:50.078Z,12.20
2018-01-14T13:08:17.548Z,15.13
2018-01-14T13:10:45.013Z,16.63
2018-01-14T13:13:12.492Z,14.13
2018-01-14T13:15:40.725Z,15.03
2018-01-14T13:18:08.238Z,11.30
2018-01-14T13:20:36.017Z,16.97
2018-01-14T13:23:03.497Z,15.53
2018-01-14T13:25:30.961Z,15.47
2018-01-14T13:27:58.441Z,16.43
2018-01-14T13:30:25.900Z,15.47
2018-01-14T13:32:53.368Z,17.73
2018-01-14T13:35:21.609Z,16.90
2018-01-14T13:37:49.135Z,14.90
2018-01-14T13:40:16.633Z,13.90
2018-01-14T13:42:44.117Z,16.77
2018-01-14T13:45:11.593Z,13.23
2018-01-14T13:47:39.830Z,17.43
2018-01-14T13:50:07.315Z,16.60
2018-01-14T13:52:35.556Z,16.00
2018-01-14T13:55:03.025Z,14.57
2018-01-14T13:57:30.502Z,17.83
2018-01-14T13:59:57.969Z,15.87
2018-01-14T14:02:26.214Z,18.13
2018-01-14T14:04:53.682Z,18.00
2018-01-14T14:07:21.164Z,18.67
2018-01-14T14:09:49.392Z,16.73
2018-01-14T14:12:16.868Z,17.53
2018-01-14T14:14:44.336Z,19.73
2018-01-14T14:17:11.844Z,17.20
2018-01-14T14:19:39.312Z,15.67
2018-01-14T14:22:06.776Z,11.10
2018-01-14T14:24:34.261Z,16.63
2018-01-14T14:27:01.770Z,20.37
2018-01-14T14:29:29.213Z,15.67
2018-01-14T14:31:57.445Z,17.13
2018-01-14T14:34:25.686Z,12.70
2018-01-14T14:36:53.199Z,14.83
2018-01-14T14:39:20.672Z,15.40
2018-01-14T14:41:48.917Z,18.57
2018-01-14T14:44:16.489Z,17.90
2018-01-14T14:46:43.960Z,16.60
2018-01-14T14:49:11.444Z,16.20
2018-01-14T14:51:38.954Z,20.07
2018-01-14T14:54:06.481Z,17.60
2018-01-14T14:56:33.953Z,19.47
2018-01-14T14:59:01.428Z,19.63
2018-01-14T15:01:28.901Z,16.77
2018-01-14T15:03:56.406Z,15.57
2018-01-14T15:06:23.889Z,18.53
2018-01-14T15:08:51.409Z,18.37
2018-01-14T15:11:19.686Z,15.17
2018-01-14T15:13:47.916Z,16.67
2018-01-14T15:16:15.400Z,15.57
2018-01-14T15:18:43.932Z,18.05
2018-01-14T15:21:11.448Z,17.80
2018-01-14T15:23:39.154Z,17.60
2018-01-14T15:26:06.676Z,14.27
2018-01-14T15:28:34.909Z,19.57
2018-01-14T15:31:02.375Z,18.47
2018-01-14T15:33:29.893Z,18.00
2018-01-14T15:35:57.598Z,18.00
2018-01-14T15:38:25.076Z,19.60
2018-01-14T15:40:52.541Z,17.60
2018-01-14T15:43:20.012Z,17.87
2018-01-14T15:45:48.252Z,17.33
2018-01-14T15:48:15.770Z,18.87
2018-01-14T15:50:43.284Z,18.73
2018-01-14T15:53:11.005Z,19.05
2018-01-14T15:55:38.473Z,14.33
2018-01-14T15:58:05.998Z,19.40
2018-01-14T16:00:34.455Z,15.33
2018-01-14T16:03:01.928Z,19.53
2018-01-14T16:05:30.210Z,20.63
2018-01-14T16:07:58.445Z,17.40
2018-01-14T16:10:27.011Z,16.70
2018-01-14T16:12:54.526Z,16.63
2018-01-14T16:15:22.806Z,18.53
2018-01-14T16:17:51.082Z,17.47
2018-01-14T16:20:19.368Z,20.00
2018-01-14T16:22:46.875Z,19.20
2018-01-14T16:25:14.349Z,23.03
2018-01-14T16:27:41.858Z,19.60
2018-01-14T16:30:09.375Z,19.00
2018-01-14T16:35:15.549Z,17.23
2018-01-14T16:37:43.037Z,17.20
2018-01-14T16:40:10.558Z,18.30
2018-01-14T16:42:40.985Z,22.67
2018-01-14T16:45:08.508Z,21.27
2018-01-14T16:47:36.027Z,23.37
2018-01-14T16:50:04.584Z,20.70
2018-01-14T16:52:32.077Z,20.10
2018-01-14T16:55:00.623Z,24.00
2018-01-14T16:57:28.100Z,20.70
2018-01-14T16:59:55.580Z,17.33
2018-01-14T17:02:23.862Z,19.17
2018-01-14T17:04:52.401Z,17.60
2018-01-14T17:07:19.940Z,26.33
2018-01-14T17:09:47.421Z,20.23
2018-01-14T17:12:14.913Z,21.13
2018-01-14T17:14:43.460Z,22.20
2018-01-14T17:17:10.924Z,18.90
2018-01-14T17:19:39.502Z,22.60
2018-01-14T17:22:07.370Z,18.10
2018-01-14T17:24:34.895Z,21.97
2018-01-14T17:27:02.696Z,21.53
2018-01-14T17:29:30.415Z,21.97
2018-01-14T17:31:57.896Z,24.90
2018-01-14T17:34:25.422Z,20.57
2018-01-14T17:36:53.698Z,22.50
2018-01-14T17:39:21.949Z,21.07
2018-01-14T17:41:49.425Z,21.17
2018-01-14T17:44:17.677Z,20.13
2018-01-14T17:46:45.194Z,20.47
2018-01-14T17:49:12.707Z,22.37
2018-01-14T17:51:40.414Z,22.17
2018-01-14T17:54:08.114Z,20.53
2018-01-14T17:56:35.588Z,18.17
2018-01-14T17:59:03.069Z,24.37
2018-01-14T18:01:30.782Z,19.73
2018-01-14T18:03:58.294Z,21.40
2018-01-14T18:06:26.575Z,18.63
2018-01-14T18:08:54.832Z,21.10
2018-01-14T18:11:23.117Z,23.73
2018-01-14T18:13:51.356Z,19.93
2018-01-14T18:16:18.887Z,19.53
2018-01-14T18:18:46.605Z,20.62
2018-01-14T18:21:14.077Z,21.92
2018-01-14T18:23:42.320Z,21.87
2018-01-14T18:26:10.034Z,18.58
2018-01-14T18:28:37.555Z,22.33
2018-01-14T18:31:05.029Z,21.20
2018-01-14T18:33:33.511Z,22.80
2018-01-14T18:36:01.010Z,26.40
2018-01-14T18:38:28.488Z,19.43
2018-01-14T18:40:56.194Z,21.63
2018-01-14T18:43:23.698Z,22.40
2018-01-14T18:45:59.029Z,28.60
2018-01-14T18:48:26.548Z,24.70
2018-01-14T18:50:54.839Z,27.85
2018-01-14T18:53:23.127Z,23.13
2018-01-14T18:55:50.664Z,22.13
2018-01-14T18:58:18.908Z,21.48
2018-01-14T19:00:46.439Z,23.87
2018-01-14T19:03:13.956Z,21.07
2018-01-14T19:05:41.429Z,25.50
2018-01-14T19:08:09.672Z,25.23
2018-01-14T19:10:37.148Z,25.70
2018-01-14T19:13:04.676Z,26.47
2018-01-14T19:15:32.207Z,22.70
2018-01-14T19:17:59.727Z,29.23
2018-01-14T19:20:27.260Z,26.30
2018-01-14T19:22:54.772Z,23.40
2018-01-14T19:25:23.043Z,23.17
2018-01-14T19:27:50.632Z,23.70
2018-01-14T19:30:18.142Z,23.50
2018-01-14T19:32:46.443Z,21.73
2018-01-14T19:35:13.972Z,18.37
2018-01-14T19:37:41.538Z,24.80
2018-01-14T19:40:09.836Z,24.05
2018-01-14T19:42:37.320Z,25.90
2018-01-14T19:45:04.847Z,22.70
2018-01-14T19:47:33.139Z,20.23
2018-01-14T19:50:00.665Z,22.52
2018-01-14T19:52:28.213Z,28.92
2018-01-14T19:54:55.692Z,22.52
2018-01-14T19:57:23.951Z,22.62
2018-01-14T19:59:51.471Z,26.55
2018-01-14T20:02:18.997Z,24.52
2018-01-14T20:04:47.287Z,26.73
2018-01-14T20:07:14.752Z,25.17
2018-01-14T20:09:42.292Z,24.23
2018-01-14T20:12:10.575Z,25.80
2018-01-14T20:14:38.873Z,23.48
2018-01-14T20:17:06.395Z,27.92
2018-01-14T20:19:33.923Z,23.75
2018-01-14T20:22:01.393Z,25.08
2018-01-14T20:24:28.931Z,31.90
2018-01-14T20:26:56.455Z,26.62
2018-01-14T20:29:23.961Z,21.35
2018-01-14T20:31:51.478Z,24.52
2018-01-14T20:34:19.005Z,28.67
2018-01-14T20:36:46.539Z,27.73
2018-01-14T20:39:14.065Z,28.48
2018-01-14T20:41:41.592Z,23.08
2018-01-14T20:44:09.897Z,24.00
2018-01-14T20:46:37.441Z,22.23
2018-01-14T20:49:05.732Z,24.85
2018-01-14T20:51:33.255Z,27.08
2018-01-14T20:54:00.776Z,31.92
2018-01-14T20:56:28.306Z,29.10
2018-01-14T20:58:55.844Z,30.12
2018-01-14T21:01:23.394Z,33.33
2018-01-14T21:03:50.868Z,28.27
2018-01-14T21:06:19.163Z,27.37
2018-01-14T21:08:46.679Z,25.42
2018-01-14T21:11:14.208Z,27.10
2018-01-14T21:13:41.729Z,29.57
2018-01-14T21:16:10.027Z,24.98
2018-01-14T21:18:37.552Z,27.62
2018-01-14T21:21:05.021Z,23.77
2018-01-14T21:23:33.315Z,17.30
2018-01-14T21:26:00.882Z,25.67
2018-01-14T21:28:28.408Z,24.92
2018-01-14T21:30:55.918Z,25.67
2018-01-14T21:33:23.452Z,28.85
2018-01-14T21:35:50.970Z,27.40
2018-01-14T21:38:18.511Z,26.95
2018-01-14T21:40:46.028Z,20.77
2018-01-14T21:43:13.566Z,20.10
2018-01-14T21:45:41.088Z,26.70
2018-01-14T21:48:08.619Z,27.58
2018-01-14T21:50:36.143Z,27.35
2018-01-14T21:53:03.668Z,25.37
2018-01-14T21:55:31.186Z,24.20
2018-01-14T21:57:58.707Z,25.92
2018-01-14T22:00:26.242Z,23.87
2018-01-14T22:02:53.751Z,30.67
2018-01-14T22:05:22.056Z,26.05
2018-01-14T22:07:49.580Z,23.25
2018-01-14T22:10:17.107Z,26.63
2018-01-14T22:12:44.617Z,29.83
2018-01-14T22:15:12.907Z,27.80
2018-01-14T22:17:40.427Z,24.80
2018-01-14T22:20:07.924Z,24.30
2018-01-14T22:22:35.416Z,29.77
2018-01-14T22:25:02.925Z,25.20
2018-01-14T22:27:31.168Z,23.83
2018-01-14T22:29:58.649Z,28.73
2018-01-14T22:32:26.176Z,19.47
2018-01-14T22:34:53.699Z,25.00
2018-01-14T22:37:21.194Z,24.90
2018-01-14T22:39:48.706Z,23.55
2018-01-14T22:42:16.185Z,25.17
2018-01-14T22:44:43.692Z,27.53
2018-01-14T22:47:11.178Z,32.03
2018-01-14T22:49:39.407Z,27.77
2018-01-14T22:52:06.986Z,26.60
2018-01-14T22:54:34.494Z,24.20
2018-01-14T22:57:02.110Z,28.75
2018-01-14T22:59:29.614Z,28.35
2018-01-14T23:01:57.092Z,21.42
2018-01-14T23:04:24.615Z,25.20
2018-01-14T23:06:52.912Z,24.03
2018-01-14T23:09:20.388Z,28.70
2018-01-14T23:11:47.864Z,26.83
2018-01-14T23:14:15.348Z,30.55
2018-01-14T23:16:43.877Z,31.55
2018-01-14T23:19:11.397Z,28.02
2018-01-14T23:21:39.637Z,24.80
2018-01-14T23:24:07.162Z,21.27
2018-01-14T23:26:34.634Z,27.20
2018-01-14T23:29:02.114Z,26.37
2018-01-14T23:31:29.593Z,30.08
2018-01-14T23:33:57.069Z,24.40
2018-01-14T23:36:25.324Z,27.92
2018-01-14T23:38:52.800Z,23.48
2018-01-14T23:41:21.043Z,28.20
2018-01-14T23:43:48.521Z,22.13
2018-01-14T23:46:16.008Z,24.12
2018-01-14T23:48:43.482Z,22.83
2018-01-14T23:51:10.956Z,21.90
2018-01-14T23:53:38.429Z,22.33
2018-01-14T23:56:05.909Z,26.93
2018-01-14T23:58:33.372Z,23.23
